Flight Track Log - Related Links

Times and Time Zones

All times are in EDT time to prevent confusion due to time zone crossing. See the SWA1046 flight status page for this flight to view local times or setup timezone preferences in your user account.

Time Position Orientation Groundspeed Altitude Reporting Facility
EDT Latitude Longitude Course Direction KTS MPH feet Rate Location/Type
Tue 02:14:51 PM 38.7833 -90.4550 270° West 217 250 4,100  Level Kansas City Center
Tue 02:15:53 PM 38.7436 -90.5306 236° Southwest 269 310 5,000 2,468 Climbing Kansas City Center
Tue 02:16:55 PM 38.6708 -90.6003 217° Southwest 277 319 9,200 3,366 Climbing Kansas City Center
Tue 02:17:56 PM 38.6047 -90.6686 219° Southwest 311 358 11,900 3,366 Climbing Kansas City Center
Tue 02:18:58 PM 38.5278 -90.7461 218° Southwest 351 404 16,100 3,194 Climbing Kansas City Center
Tue 02:19:00 PM 38.3690 -90.8307 224° Southwest  Level Estimated
Tue 02:20:00 PM 38.4486 -90.8267 219° Southwest 366 421 18,500  Level Kansas City Center
Tue 02:21:02 PM 38.3633 -90.9125 218° Southwest 390 449 21,800 3,000 Climbing Kansas City Center
Tue 02:22:04 PM 38.2550 -91.0167 217° Southwest 409 471 24,700 2,565 Climbing Kansas City Center
Tue 02:23:06 PM 38.1583 -91.1053 216° Southwest 428 493 27,100 2,177 Climbing Kansas City Center
Tue 02:24:08 PM 38.0581 -91.1917 214° Southwest 434 499 29,200 1,805 Climbing Kansas City Center
Tue 02:25:09 PM 37.9642 -91.2975 222° Southwest 448 516 30,800 1,854 Climbing Kansas City Center
Tue 02:26:11 PM 37.8761 -91.4139 226° Southwest 457 526 33,000 2,177 Climbing Kansas City Center
Tue 02:27:13 PM 37.7889 -91.5303 227° Southwest 456 525 35,300 1,984 Climbing Kansas City Center
Tue 02:28:15 PM 37.7017 -91.6419 225° Southwest 442 509 37,100 1,790 Climbing Kansas City Center
Tue 02:29:17 PM 37.6003 -91.7750 226° Southwest 435 501 39,000 1,403 Climbing Kansas City Center
Tue 02:30:19 PM 37.5147 -91.8819 225° Southwest 432 497 40,000 484 Climbing Kansas City Center
Tue 02:31:21 PM 37.4250 -91.9861 223° Southwest 434 499 40,000  Level Kansas City Center
Tue 02:32:22 PM 37.3342 -92.0878 222° Southwest 434 499 40,000  Level Kansas City Center
Tue 02:33:24 PM 37.2467 -92.1900 223° Southwest 430 495 40,000  Level Kansas City Center
Tue 02:34:26 PM 37.1569 -92.2936 223° Southwest 431 496 40,000  Level Kansas City Center
Tue 02:35:28 PM 37.0672 -92.3978 223° Southwest 434 499 40,000  Level Kansas City Center
Tue 02:36:30 PM 36.9769 -92.5019 223° Southwest 437 503 40,000  Level Kansas City Center
Tue 02:37:32 PM 36.8853 -92.6064 222° Southwest 441 507 40,000  Level Kansas City Center
Tue 02:38:20 PM 36.7953 -92.7069 222° Southwest 449 517 40,000  Level Memphis Center
Tue 02:39:20 PM 36.7036 -92.8103 222° Southwest 449 517 40,000  Level Memphis Center
Tue 02:40:20 PM 36.6119 -92.9136 222° Southwest 449 517 40,000  Level Memphis Center
Tue 02:41:20 PM 36.5183 -93.0086 219° Southwest 449 517 40,000  Level Memphis Center
Tue 02:42:20 PM 36.4306 -93.1092 223° Southwest 449 517 40,000  Level Memphis Center
Tue 02:43:20 PM 36.3389 -93.2039 220° Southwest 444 511 40,000  Level Memphis Center
Tue 02:44:20 PM 36.2492 -93.2986 220° Southwest 439 505 40,000  Level Memphis Center
Tue 02:45:20 PM 36.1592 -93.3956 221° Southwest 439 505 40,000  Level Memphis Center
Tue 02:46:20 PM 36.0672 -93.4922 220° Southwest 439 505 40,000  Level Memphis Center
Tue 02:47:20 PM 35.9772 -93.5864 220° Southwest 439 505 40,000  Level Memphis Center
Tue 02:48:20 PM 35.8869 -93.6828 221° Southwest 434 499 40,000  Level Memphis Center
Tue 02:49:20 PM 35.7947 -93.7814 221° Southwest 434 499 40,000  Level Memphis Center
Tue 02:50:20 PM 35.7044 -93.8747 220° Southwest 441 507 40,000  Level Memphis Center
Tue 02:51:20 PM 35.6142 -93.9706 221° Southwest 436 502 40,000  Level Memphis Center
Tue 02:52:20 PM 35.5175 -94.0683 219° Southwest 436 502 40,000  Level Memphis Center
Tue 02:53:20 PM 35.4292 -94.1614 221° Southwest 436 502 40,000  Level Memphis Center
Tue 02:54:20 PM 35.3344 -94.2586 220° Southwest 436 502 40,000  Level Memphis Center
Tue 02:55:20 PM 35.2458 -94.3514 221° Southwest 436 502 40,000  Level Memphis Center
Tue 02:56:51 PM 35.1075 -94.5000 221° Southwest 445 512 40,000  Level Fort Worth Center
Tue 02:57:51 PM 35.0158 -94.5944 220° Southwest 440 506 40,000  Level Fort Worth Center
Tue 02:58:51 PM 34.9175 -94.6789 215° Southwest 440 506 40,000  Level Fort Worth Center
Tue 02:59:51 PM 34.8186 -94.7350 205° Southwest 435 501 40,000  Level Fort Worth Center
Tue 03:00:51 PM 34.7117 -94.7964 205° Southwest 435 501 40,000  Level Fort Worth Center
Tue 03:01:51 PM 34.6194 -94.8800 217° Southwest 428 493 40,000  Level Fort Worth Center
Tue 03:02:51 PM 34.5336 -94.9733 222° Southwest 423 487 40,000  Level Fort Worth Center
Tue 03:03:51 PM 34.4478 -95.0664 222° Southwest 423 487 40,000 -1,350 Level Fort Worth Center
Tue 03:04:51 PM 34.3639 -95.1569 222° Southwest 417 480 37,300 -2,600 Descending Fort Worth Center
Tue 03:05:51 PM 34.2800 -95.2494 222° Southwest 412 474 34,800 -2,300 Descending Fort Worth Center
Tue 03:06:51 PM 34.2000 -95.3394 223° Southwest 412 474 32,700 -2,100 Descending Fort Worth Center
Tue 03:07:51 PM 34.1139 -95.4267 220° Southwest 407 468 30,600 -2,000 Descending Fort Worth Center
Tue 03:08:51 PM 34.0381 -95.5111 223° Southwest 395 455 28,700 -1,900 Descending Fort Worth Center
Tue 03:09:51 PM 33.9639 -95.5903 222° Southwest 375 432 26,800 -1,900 Descending Fort Worth Center
Tue 03:10:51 PM 33.8858 -95.6697 220° Southwest 370 426 24,900 -1,850 Descending Fort Worth Center
Tue 03:11:51 PM 33.8181 -95.7458 223° Southwest 357 411 23,100 -1,850 Descending Fort Worth Center
Tue 03:12:51 PM 33.7439 -95.8197 220° Southwest 352 405 21,200 -1,800 Descending Fort Worth Center
Tue 03:13:51 PM 33.6739 -95.8958 222° Southwest 346 398 19,500 -1,750 Descending Fort Worth Center
Tue 03:14:51 PM 33.6039 -95.9769 224° Southwest 335 386 17,700 -1,750 Descending Fort Worth Center
Tue 03:15:51 PM 33.5461 -96.0378 221° Southwest 329 379 16,000 -1,750 Descending Fort Worth Center
Tue 03:16:51 PM 33.4697 -96.1161 221° Southwest 323 372 14,200 -1,700 Descending Fort Worth Center
Tue 03:17:51 PM 33.4139 -96.1767 222° Southwest 323 372 12,600 -1,700 Descending Fort Worth Center
Tue 03:18:51 PM 33.3436 -96.2497 221° Southwest 316 364 10,800 -1,500 Descending Fort Worth Center
Tue 03:19:51 PM 33.2878 -96.3075 221° Southwest 309 356 9,600 -1,273 Descending Fort Worth Center
Tue 03:21:03 PM 33.2319 -96.3853 229° Southwest 290 334 8,000 -1,636 Descending Fort Worth Center
Tue 03:22:03 PM 33.1764 -96.4753 234° Southwest 285 328 6,000 -1,550 Descending Fort Worth Center
Tue 03:23:03 PM 33.1456 -96.5475 243° Southwest 279 321 4,900 -1,000 Descending Fort Worth Center
Tue 03:24:03 PM 33.1044 -96.6197 236° Southwest 274 315 4,000 -450 Descending Fort Worth Center
Tue 03:25:03 PM 33.0589 -96.6994 236° Southwest 269 310 4,000 -541 Level Fort Worth Center
Tue 03:25:54 PM 33.0167 -96.7667 233° Southwest 267 307 3,000 -541 Descending Dallas / Fort Worth TRACON
Tue 03:26:54 PM 32.9833 -96.8167 232° Southwest 220 253 3,000  Level Dallas / Fort Worth TRACON
Tue 03:27:54 PM 32.9500 -96.8667 232° Southwest 176 203 3,000 -400 Level Dallas / Fort Worth TRACON
Tue 03:28:54 PM 32.9167 -96.9000 220° Southwest 148 170 2,200 -900 Descending Dallas / Fort Worth TRACON
Tue 03:29:54 PM 32.8833 -96.8833 157° South 135 155 1,200 -1,000 Descending Dallas / Fort Worth TRACON
Tue 03:33:00 PM 32.8471 -96.8518 90° East  Level Estimated

Login

Don't have an account? Register now (free) for customized features, flight alerts, and more!